createdAt,value
2017-04-16T00:00:43.440Z,996.91
2017-04-16T00:01:43.474Z,996.9
2017-04-16T00:02:43.503Z,996.88
2017-04-16T00:03:43.527Z,996.87
2017-04-16T00:04:43.556Z,996.9
2017-04-16T00:05:43.585Z,996.84
2017-04-16T00:06:43.610Z,996.84
2017-04-16T00:07:43.639Z,996.81
2017-04-16T00:08:43.668Z,996.78
2017-04-16T00:09:43.692Z,996.79
2017-04-16T00:10:43.721Z,996.78
2017-04-16T00:11:43.749Z,996.76
2017-04-16T00:12:43.783Z,996.77
2017-04-16T00:13:43.800Z,996.82
2017-04-16T00:14:43.833Z,996.82
2017-04-16T00:15:43.859Z,996.76
2017-04-16T00:16:43.886Z,996.79
2017-04-16T00:17:43.914Z,996.83
2017-04-16T00:18:43.941Z,996.84
2017-04-16T00:19:43.970Z,996.79
2017-04-16T00:20:43.998Z,996.82
2017-04-16T00:21:44.025Z,996.82
2017-04-16T00:22:44.051Z,996.78
2017-04-16T00:23:44.079Z,996.77
2017-04-16T00:24:44.103Z,996.77
2017-04-16T00:25:44.132Z,996.77
2017-04-16T00:26:44.162Z,996.79
2017-04-16T00:27:44.187Z,996.79
2017-04-16T00:28:44.215Z,996.75
2017-04-16T00:29:44.243Z,996.75
2017-04-16T00:30:44.268Z,996.77
2017-04-16T00:31:44.293Z,996.75
2017-04-16T00:32:44.323Z,996.75
2017-04-16T00:33:44.346Z,996.74
2017-04-16T00:34:44.379Z,996.77
2017-04-16T00:35:44.405Z,996.79
2017-04-16T00:36:44.433Z,996.77
2017-04-16T00:37:44.462Z,996.81
2017-04-16T00:38:44.486Z,996.8
2017-04-16T00:39:44.516Z,996.8
2017-04-16T00:40:44.544Z,996.84
2017-04-16T00:41:44.569Z,996.82
2017-04-16T00:42:44.598Z,996.81
2017-04-16T00:43:44.622Z,996.78
2017-04-16T00:44:44.652Z,996.78
2017-04-16T00:45:44.680Z,996.83
2017-04-16T00:46:44.704Z,996.79
2017-04-16T00:47:44.732Z,996.75
2017-04-16T00:48:44.763Z,996.75
2017-04-16T00:49:44.791Z,996.74
2017-04-16T00:50:44.816Z,996.76
2017-04-16T00:51:44.845Z,996.77
2017-04-16T00:52:44.868Z,996.74
2017-04-16T00:53:44.893Z,996.72
2017-04-16T00:54:44.927Z,996.67
2017-04-16T00:55:44.950Z,996.65
2017-04-16T00:56:44.981Z,996.63
2017-04-16T00:57:45.006Z,996.59
2017-04-16T00:58:45.031Z,996.61
2017-04-16T00:59:45.062Z,996.6
2017-04-16T01:00:45.091Z,996.65
2017-04-16T01:01:45.117Z,996.63
2017-04-16T01:02:45.145Z,996.66
2017-04-16T01:03:45.171Z,996.67
2017-04-16T01:04:45.198Z,996.62
2017-04-16T01:05:45.228Z,996.68
2017-04-16T01:08:46.439Z,996.66
2017-04-16T01:10:45.599Z,996.64
2017-04-16T01:11:46.234Z,996.64
2017-04-16T01:12:45.648Z,996.65
2017-04-16T01:13:46.069Z,996.64
2017-04-16T01:14:45.726Z,996.68
2017-04-16T01:18:45.812Z,996.7
2017-04-16T01:19:46.087Z,996.71
2017-04-16T01:20:45.882Z,996.73
2017-04-16T01:21:45.694Z,996.69
2017-04-16T01:23:45.945Z,996.63
2017-04-16T01:24:46.036Z,996.62
2017-04-16T01:25:45.822Z,996.61
2017-04-16T01:26:46.223Z,996.6
2017-04-16T01:27:45.859Z,996.61
2017-04-16T01:30:45.931Z,996.56
2017-04-16T01:31:45.936Z,996.53
2017-04-16T01:32:45.996Z,996.56
2017-04-16T01:33:46.025Z,996.56
2017-04-16T01:34:46.212Z,996.59
2017-04-16T01:35:46.298Z,996.58
2017-04-16T01:37:49.180Z,996.61
2017-04-16T01:39:46.183Z,996.61
2017-04-16T01:40:46.465Z,996.61
2017-04-16T01:41:46.241Z,996.61
2017-04-16T01:42:46.238Z,996.56
2017-04-16T01:43:46.265Z,996.55
2017-04-16T01:47:56.417Z,996.57
2017-04-16T01:48:55.207Z,996.56
2017-04-16T01:50:55.298Z,996.57
2017-04-16T01:52:55.354Z,996.56
2017-04-16T01:53:55.184Z,996.57
2017-04-16T01:54:55.402Z,996.57
2017-04-16T01:55:55.447Z,996.51
2017-04-16T01:57:55.488Z,996.49
2017-04-16T01:59:55.516Z,996.47
2017-04-16T02:00:55.545Z,996.47
2017-04-16T02:01:55.354Z,996.47
2017-04-16T02:02:55.871Z,996.48
2017-04-16T02:03:55.865Z,996.46
2017-04-16T02:04:55.677Z,996.48
2017-04-16T02:07:56.008Z,996.46
2017-04-16T02:08:55.573Z,996.46
2017-04-16T02:09:55.827Z,996.46
2017-04-16T02:10:56.055Z,996.45
2017-04-16T02:12:55.936Z,996.57
2017-04-16T02:14:55.947Z,996.6
2017-04-16T02:15:55.977Z,996.61
2017-04-16T02:16:55.820Z,996.6
2017-04-16T02:17:57.684Z,996.63
2017-04-16T02:18:57.065Z,996.62
2017-04-16T02:21:55.906Z,996.66
2017-04-16T02:23:04.827Z,996.66
2017-04-16T02:24:04.612Z,996.67
2017-04-16T02:25:04.619Z,996.69
2017-04-16T02:26:04.664Z,996.68
2017-04-16T02:27:05.285Z,996.71
2017-04-16T02:28:04.959Z,996.69
2017-04-16T02:29:04.934Z,996.73
2017-04-16T02:30:04.971Z,996.7
2017-04-16T02:31:04.991Z,996.7
2017-04-16T02:33:14.794Z,996.68
2017-04-16T02:34:14.233Z,996.67
2017-04-16T02:35:14.063Z,996.65
2017-04-16T02:36:14.090Z,996.69
2017-04-16T02:38:14.405Z,996.67
2017-04-16T02:39:14.983Z,996.66
2017-04-16T02:40:14.204Z,996.63
2017-04-16T02:42:14.210Z,996.63
2017-04-16T02:43:14.522Z,996.63
2017-04-16T02:44:14.921Z,996.67
2017-04-16T02:45:20.586Z,996.65
2017-04-16T02:46:17.395Z,996.65
2017-04-16T02:47:20.643Z,996.62
2017-04-16T02:48:14.873Z,996.65
2017-04-16T02:49:14.427Z,996.68
2017-04-16T02:50:14.636Z,996.67
2017-04-16T02:51:14.486Z,996.63
2017-04-16T02:53:15.050Z,996.61
2017-04-16T02:54:14.570Z,996.65
2017-04-16T02:55:14.590Z,996.63
2017-04-16T02:56:14.841Z,996.62
2017-04-16T02:58:38.744Z,996.62
2017-04-16T02:59:38.102Z,996.6
2017-04-16T03:00:37.890Z,996.6
2017-04-16T03:01:37.919Z,996.6
2017-04-16T03:02:37.944Z,996.59
2017-04-16T03:03:38.461Z,996.64
2017-04-16T03:04:38.001Z,996.61
2017-04-16T03:05:38.051Z,996.63
2017-04-16T03:06:38.059Z,996.62
2017-04-16T03:07:38.934Z,996.63
2017-04-16T03:08:38.721Z,996.61
2017-04-16T03:10:38.415Z,996.65
2017-04-16T03:12:38.451Z,996.63
2017-04-16T03:13:38.451Z,996.61
2017-04-16T03:14:44.579Z,996.61
2017-04-16T03:15:38.334Z,996.59
2017-04-16T03:16:38.322Z,996.59
2017-04-16T03:17:38.347Z,996.58
2017-04-16T03:18:38.380Z,996.54
2017-04-16T03:19:38.399Z,996.55
2017-04-16T03:20:38.432Z,996.54
2017-04-16T03:21:38.459Z,996.62
2017-04-16T03:22:38.487Z,996.62
2017-04-16T03:23:38.512Z,996.64
2017-04-16T03:24:38.540Z,996.65
2017-04-16T03:25:38.569Z,996.69
2017-04-16T03:26:38.593Z,996.67
2017-04-16T03:27:38.622Z,996.67
2017-04-16T03:28:38.647Z,996.69
2017-04-16T03:29:38.675Z,996.6
2017-04-16T03:30:38.704Z,996.58
2017-04-16T03:31:38.729Z,996.58
2017-04-16T03:32:38.757Z,996.54
2017-04-16T03:33:38.784Z,996.55
2017-04-16T03:40:36.530Z,996.56
2017-04-16T03:42:36.155Z,996.61
2017-04-16T03:43:36.184Z,996.61
2017-04-16T03:44:36.477Z,996.6
2017-04-16T03:45:36.024Z,996.59
2017-04-16T03:46:36.895Z,996.62
2017-04-16T03:47:36.343Z,996.59
2017-04-16T03:49:36.348Z,996.65
2017-04-16T03:50:36.373Z,996.69
2017-04-16T03:51:36.200Z,996.65
2017-04-16T03:53:36.670Z,996.68
2017-04-16T03:56:36.533Z,996.65
2017-04-16T03:57:36.562Z,996.66
2017-04-16T03:58:36.390Z,996.63
2017-04-16T03:59:36.653Z,996.64
2017-04-16T04:00:36.698Z,996.68
2017-04-16T04:03:36.729Z,996.63
2017-04-16T04:05:36.804Z,996.67
2017-04-16T04:06:36.815Z,996.64
2017-04-16T04:07:36.819Z,996.69
2017-04-16T04:09:36.685Z,996.68
2017-04-16T04:10:36.989Z,996.7
2017-04-16T04:11:36.745Z,996.7
2017-04-16T04:12:36.754Z,996.68
2017-04-16T04:13:37.037Z,996.71
2017-04-16T04:14:36.797Z,996.72
2017-04-16T04:15:37.713Z,996.7
2017-04-16T04:16:37.072Z,996.73
2017-04-16T04:17:38.932Z,996.73
2017-04-16T04:18:36.900Z,996.72
2017-04-16T04:21:37.435Z,996.81
2017-04-16T04:22:38.261Z,996.81
2017-04-16T04:23:37.483Z,996.81
2017-04-16T04:24:37.701Z,996.83
2017-04-16T04:25:37.343Z,996.81
2017-04-16T04:27:37.175Z,996.85
2017-04-16T04:28:38.433Z,996.86
2017-04-16T04:29:37.449Z,996.9
2017-04-16T04:32:37.723Z,996.87
2017-04-16T04:34:37.571Z,996.88
2017-04-16T04:37:37.663Z,996.86
2017-04-16T04:38:37.681Z,996.9
2017-04-16T04:39:37.705Z,996.92
2017-04-16T04:41:55.471Z,996.98
2017-04-16T04:43:52.522Z,997.03
2017-04-16T04:44:52.313Z,997.08
2017-04-16T04:45:53.594Z,997.03
2017-04-16T04:49:01.809Z,997.11
2017-04-16T04:50:01.750Z,997.12
2017-04-16T04:51:01.989Z,997.14
2017-04-16T04:55:01.896Z,997.22
2017-04-16T04:56:02.933Z,997.16
2017-04-16T04:57:01.730Z,997.18
2017-04-16T04:58:01.769Z,997.19
2017-04-16T04:59:02.243Z,997.16
2017-04-16T05:00:03.238Z,997.14
2017-04-16T05:01:02.058Z,997.14
2017-04-16T05:04:02.358Z,997.17
2017-04-16T05:06:01.979Z,997.14
2017-04-16T05:07:02.237Z,997.15
2017-04-16T05:08:02.003Z,997.11
2017-04-16T05:09:02.279Z,997.13
2017-04-16T05:10:05.777Z,997.16
2017-04-16T05:11:02.333Z,997.16
2017-04-16T05:13:02.773Z,997.19
2017-04-16T05:15:02.826Z,997.2
2017-04-16T05:17:02.494Z,997.22
2017-04-16T05:18:02.503Z,997.27
2017-04-16T05:20:02.564Z,997.35
2017-04-16T05:21:02.597Z,997.38
2017-04-16T05:22:02.639Z,997.41
2017-04-16T05:24:11.932Z,997.41
2017-04-16T05:25:12.628Z,997.41
2017-04-16T05:26:11.585Z,997.41
2017-04-16T05:27:11.569Z,997.41
2017-04-16T05:28:11.632Z,997.4
2017-04-16T05:29:11.654Z,997.41
2017-04-16T05:30:12.134Z,997.4
2017-04-16T05:31:11.936Z,997.4
2017-04-16T05:32:11.705Z,997.41
2017-04-16T05:33:11.733Z,997.42
2017-04-16T05:34:11.760Z,997.4
2017-04-16T05:36:11.817Z,997.37
2017-04-16T05:39:18.654Z,997.36
2017-04-16T05:42:17.091Z,997.35
2017-04-16T05:43:17.779Z,997.39
2017-04-16T05:44:17.361Z,997.37
2017-04-16T05:46:17.422Z,997.36
2017-04-16T05:52:21.030Z,997.54
2017-04-16T05:53:20.854Z,997.56
2017-04-16T05:55:20.897Z,997.55
2017-04-16T05:57:20.777Z,997.52
2017-04-16T06:00:20.598Z,997.57
2017-04-16T06:01:20.628Z,997.62
2017-04-16T06:02:20.652Z,997.6
2017-04-16T06:10:15.591Z,997.66
2017-04-16T06:11:16.868Z,997.66
2017-04-16T06:13:15.908Z,997.68
2017-04-16T06:14:15.701Z,997.66
2017-04-16T06:15:15.730Z,997.69
2017-04-16T06:16:15.755Z,997.71
2017-04-16T06:17:15.781Z,997.72
2017-04-16T06:19:15.869Z,997.7
2017-04-16T06:21:26.014Z,997.72
2017-04-16T06:25:07.234Z,997.76
2017-04-16T06:32:40.155Z,997.82
2017-04-16T06:33:39.924Z,997.8
2017-04-16T06:35:39.772Z,997.81
2017-04-16T06:36:39.799Z,997.8
2017-04-16T06:37:40.078Z,997.84
2017-04-16T06:38:39.856Z,997.87
2017-04-16T06:39:39.881Z,997.86
2017-04-16T06:40:39.909Z,997.87
2017-04-16T06:41:40.177Z,997.89
2017-04-16T06:42:40.220Z,997.85
2017-04-16T06:43:39.992Z,997.92
2017-04-16T06:45:40.046Z,997.9
2017-04-16T06:46:40.074Z,997.88
2017-04-16T06:47:40.343Z,997.93
2017-04-16T06:54:35.408Z,997.91
2017-04-16T06:57:35.492Z,997.89
2017-04-16T06:58:38.840Z,997.9
2017-04-16T06:59:36.054Z,997.84
2017-04-16T07:00:36.012Z,997.89
2017-04-16T07:01:35.639Z,997.87
2017-04-16T07:02:35.877Z,997.9
2017-04-16T07:03:35.655Z,997.93
2017-04-16T07:06:44.735Z,997.85
2017-04-16T07:07:46.911Z,997.83
2017-04-16T07:09:54.462Z,997.79
2017-04-16T07:12:02.410Z,997.82
2017-04-16T07:20:55.355Z,997.79
2017-04-16T07:25:05.442Z,997.79
2017-04-16T07:26:05.469Z,997.79
2017-04-16T07:27:05.494Z,997.8
2017-04-16T07:28:06.182Z,997.8
2017-04-16T07:29:05.548Z,997.81
2017-04-16T07:30:05.590Z,997.79
2017-04-16T07:31:05.604Z,997.84
2017-04-16T07:32:05.635Z,997.82
2017-04-16T07:34:05.942Z,997.85
2017-04-16T07:35:05.718Z,997.83
2017-04-16T07:36:05.741Z,997.85
2017-04-16T07:40:06.105Z,997.86
2017-04-16T07:46:21.201Z,997.94
2017-04-16T08:07:05.483Z,997.93
2017-04-16T08:08:05.515Z,997.87
2017-04-16T08:09:05.544Z,997.89
2017-04-16T08:10:05.570Z,997.89
2017-04-16T08:11:05.597Z,997.9
2017-04-16T08:12:05.878Z,997.9
2017-04-16T08:13:05.649Z,997.91
2017-04-16T08:14:05.681Z,997.88
2017-04-16T08:15:05.710Z,997.9
2017-04-16T08:16:05.778Z,997.89
2017-04-16T08:17:06.009Z,997.9
2017-04-16T08:18:05.787Z,997.89
2017-04-16T08:19:05.821Z,997.9
2017-04-16T08:20:06.690Z,997.91
2017-04-16T08:21:05.868Z,997.91
2017-04-16T08:22:06.154Z,997.96
2017-04-16T08:23:05.931Z,997.94
2017-04-16T08:24:05.955Z,997.92
2017-04-16T08:25:05.984Z,997.9
2017-04-16T08:26:06.012Z,997.93
2017-04-16T08:27:06.289Z,997.96
2017-04-16T08:28:06.066Z,997.97
2017-04-16T08:29:06.095Z,997.98
2017-04-16T08:30:06.120Z,998
2017-04-16T08:31:06.149Z,998.02
2017-04-16T08:32:06.174Z,998.01
2017-04-16T08:33:06.202Z,997.99
2017-04-16T08:34:06.235Z,998.01
2017-04-16T08:35:06.260Z,997.99
2017-04-16T08:36:06.285Z,998
2017-04-16T08:37:06.310Z,998.04
2017-04-16T08:38:06.337Z,998
2017-04-16T08:39:06.376Z,997.99
2017-04-16T08:40:06.395Z,998.04
2017-04-16T08:41:06.430Z,998.06
2017-04-16T08:42:06.452Z,998.03
2017-04-16T08:43:06.477Z,998.06
2017-04-16T08:44:06.507Z,998.06
2017-04-16T08:45:06.536Z,998.07
2017-04-16T08:46:06.564Z,998.06
2017-04-16T08:47:06.616Z,998.03
2017-04-16T08:48:06.614Z,998.05
2017-04-16T08:49:06.643Z,998.05
2017-04-16T08:50:06.672Z,998.05
2017-04-16T08:51:06.696Z,998.07
2017-04-16T08:52:06.727Z,998.09
2017-04-16T08:53:06.755Z,998.1
2017-04-16T08:54:06.783Z,998.03
2017-04-16T08:55:06.812Z,998.03
2017-04-16T08:56:06.841Z,998.03
2017-04-16T08:57:06.866Z,997.99
2017-04-16T08:58:06.887Z,998.04
2017-04-16T08:59:06.922Z,998
2017-04-16T09:00:06.947Z,998.02
2017-04-16T09:01:06.975Z,997.98
2017-04-16T09:02:07.015Z,998
2017-04-16T09:03:07.028Z,998.02
2017-04-16T09:04:07.058Z,997.98
2017-04-16T09:05:07.087Z,998.02
2017-04-16T09:06:07.111Z,998.01
2017-04-16T09:07:07.141Z,997.99
2017-04-16T09:08:07.169Z,997.94
2017-04-16T09:09:07.198Z,997.97
2017-04-16T09:10:07.224Z,997.94
2017-04-16T09:11:07.253Z,997.92
2017-04-16T09:12:07.292Z,997.87
2017-04-16T09:13:07.304Z,997.84
2017-04-16T09:14:07.334Z,997.83
2017-04-16T09:15:07.363Z,997.85
2017-04-16T09:16:07.388Z,997.89
2017-04-16T09:17:07.416Z,997.85
2017-04-16T09:18:07.445Z,997.89
2017-04-16T09:19:07.470Z,997.85
2017-04-16T09:20:07.494Z,997.86
2017-04-16T09:21:07.527Z,997.85
2017-04-16T09:22:07.556Z,997.88
2017-04-16T09:23:07.576Z,997.83
2017-04-16T09:24:07.609Z,997.88
2017-04-16T09:25:07.637Z,997.9
2017-04-16T09:26:07.664Z,997.89
2017-04-16T09:27:07.693Z,997.84
2017-04-16T09:28:07.720Z,997.88
2017-04-16T09:29:07.748Z,997.86
2017-04-16T09:30:07.775Z,997.84
2017-04-16T09:31:07.825Z,997.85
2017-04-16T09:32:07.832Z,997.84
2017-04-16T09:33:07.858Z,997.87
2017-04-16T09:34:07.885Z,997.83
2017-04-16T09:35:07.916Z,997.84
2017-04-16T09:36:07.935Z,997.81
2017-04-16T09:37:07.967Z,997.84
2017-04-16T09:38:07.996Z,997.82
2017-04-16T09:39:08.022Z,997.77
2017-04-16T09:40:08.051Z,997.82
2017-04-16T09:41:08.079Z,997.82
2017-04-16T09:42:08.104Z,997.8
2017-04-16T09:43:08.133Z,997.81
2017-04-16T09:44:08.162Z,997.79
2017-04-16T09:45:08.218Z,997.85
2017-04-16T09:46:08.214Z,997.84
2017-04-16T09:47:08.243Z,997.78
2017-04-16T09:48:08.269Z,997.82
2017-04-16T09:49:08.296Z,997.75
2017-04-16T09:50:08.325Z,997.73
2017-04-16T09:51:08.349Z,997.72
2017-04-16T09:52:08.381Z,997.77
2017-04-16T09:53:08.409Z,997.75
2017-04-16T09:54:08.463Z,997.73
2017-04-16T09:55:08.462Z,997.8
2017-04-16T09:56:08.491Z,997.8
2017-04-16T09:57:08.518Z,997.82
2017-04-16T09:58:08.583Z,997.83
2017-04-16T09:59:08.607Z,997.84
2017-04-16T10:00:08.599Z,997.81
2017-04-16T10:01:08.627Z,997.77
2017-04-16T10:02:08.655Z,997.77
2017-04-16T10:03:09.004Z,997.76
2017-04-16T10:04:08.710Z,997.82
2017-04-16T10:05:08.739Z,997.75
2017-04-16T10:06:08.768Z,997.72
2017-04-16T10:07:08.791Z,997.71
2017-04-16T10:08:09.069Z,997.77
2017-04-16T10:09:08.843Z,997.71
2017-04-16T10:10:08.869Z,997.76
2017-04-16T10:11:08.899Z,997.75
2017-04-16T10:12:08.928Z,997.74
2017-04-16T10:13:09.204Z,997.83
2017-04-16T10:14:08.980Z,997.77
2017-04-16T10:15:09.009Z,997.76
2017-04-16T10:16:09.039Z,997.76
2017-04-16T10:17:09.069Z,997.79
2017-04-16T10:18:09.341Z,997.76
2017-04-16T10:19:09.117Z,997.77
2017-04-16T10:20:09.149Z,997.77
2017-04-16T10:21:09.178Z,997.76
2017-04-16T10:22:09.203Z,997.76
2017-04-16T10:23:09.233Z,997.75
2017-04-16T10:24:09.256Z,997.79
2017-04-16T10:25:09.282Z,997.74
2017-04-16T10:26:09.314Z,997.78
2017-04-16T10:27:09.344Z,997.79
2017-04-16T10:28:09.368Z,997.77
2017-04-16T10:29:09.388Z,997.81
2017-04-16T10:30:09.422Z,997.81
2017-04-16T10:31:09.449Z,997.81
2017-04-16T10:32:09.474Z,997.8
2017-04-16T10:33:09.505Z,997.79
2017-04-16T10:34:09.533Z,997.74
2017-04-16T10:35:09.562Z,997.86
2017-04-16T10:36:09.586Z,997.83
2017-04-16T10:37:09.614Z,997.83
2017-04-16T10:38:09.640Z,997.84
2017-04-16T10:39:09.664Z,997.85
2017-04-16T10:40:09.696Z,997.85
2017-04-16T10:41:09.727Z,997.81
2017-04-16T10:42:09.750Z,997.85
2017-04-16T10:43:09.775Z,997.79
2017-04-16T10:44:09.805Z,997.76
2017-04-16T10:45:09.833Z,997.8
2017-04-16T10:46:09.861Z,997.73
2017-04-16T10:47:09.888Z,997.73
2017-04-16T10:48:09.918Z,997.74
2017-04-16T10:49:09.940Z,997.72
2017-04-16T10:50:09.964Z,997.73
2017-04-16T10:51:10.009Z,997.74
2017-04-16T10:52:10.026Z,997.72
2017-04-16T10:53:10.054Z,997.75
2017-04-16T10:54:10.079Z,997.75
2017-04-16T10:55:10.109Z,997.73
2017-04-16T10:56:10.136Z,997.69
2017-04-16T10:57:10.162Z,997.75
2017-04-16T10:58:10.191Z,997.68
2017-04-16T10:59:10.218Z,997.64
2017-04-16T11:00:10.245Z,997.65
2017-04-16T11:01:10.272Z,997.61
2017-04-16T11:02:10.302Z,997.61
2017-04-16T11:03:10.328Z,997.55
2017-04-16T11:04:10.359Z,997.49
2017-04-16T11:05:10.387Z,997.58
2017-04-16T11:06:10.410Z,997.54
2017-04-16T11:07:10.438Z,997.55
2017-04-16T11:08:10.465Z,997.56
2017-04-16T11:09:10.488Z,997.53
2017-04-16T11:13:43.141Z,997.53
2017-04-16T11:15:42.945Z,997.54
2017-04-16T11:16:42.968Z,997.52
2017-04-16T11:17:42.999Z,997.57
2017-04-16T11:24:14.439Z,997.56
2017-04-16T11:25:13.635Z,997.59
2017-04-16T11:27:13.715Z,997.59
2017-04-16T11:28:13.714Z,997.56
2017-04-16T11:29:14.236Z,997.56
2017-04-16T11:30:13.772Z,997.51
2017-04-16T11:31:13.798Z,997.5
2017-04-16T11:33:13.852Z,997.49
2017-04-16T11:34:14.356Z,997.49
2017-04-16T11:35:13.909Z,997.53
2017-04-16T11:36:13.932Z,997.42
2017-04-16T11:37:13.964Z,997.48
2017-04-16T11:38:13.987Z,997.47
2017-04-16T11:39:14.274Z,997.4
2017-04-16T11:40:14.046Z,997.44
2017-04-16T11:41:14.070Z,997.43
2017-04-16T11:42:14.101Z,997.42
2017-04-16T11:43:14.130Z,997.44
2017-04-16T11:44:14.406Z,997.44
2017-04-16T11:45:14.185Z,997.44
2017-04-16T11:46:14.211Z,997.38
2017-04-16T11:47:14.242Z,997.38
2017-04-16T11:48:14.263Z,997.39
2017-04-16T11:49:14.295Z,997.42
2017-04-16T11:50:14.324Z,997.37
2017-04-16T11:51:14.348Z,997.34
2017-04-16T11:52:14.375Z,997.39
2017-04-16T11:53:14.406Z,997.36
2017-04-16T11:54:14.434Z,997.36
2017-04-16T11:55:14.455Z,997.3
2017-04-16T11:56:14.487Z,997.35
2017-04-16T11:57:14.515Z,997.38
2017-04-16T11:58:14.538Z,997.43
2017-04-16T11:59:14.571Z,997.5
2017-04-16T12:00:14.600Z,997.46
2017-04-16T12:01:14.619Z,997.51
2017-04-16T12:02:14.651Z,997.48
2017-04-16T12:03:14.676Z,997.43
2017-04-16T12:04:14.701Z,997.44
2017-04-16T12:05:14.735Z,997.43
2017-04-16T12:06:14.759Z,997.39
2017-04-16T12:07:14.788Z,997.39
2017-04-16T12:08:14.813Z,997.44
2017-04-16T12:09:14.845Z,997.44
2017-04-16T12:10:14.870Z,997.46
2017-04-16T12:11:14.896Z,997.47
2017-04-16T12:12:14.929Z,997.51
2017-04-16T12:13:14.952Z,997.53
2017-04-16T12:14:14.986Z,997.5
2017-04-16T12:15:15.011Z,997.48
2017-04-16T12:16:15.039Z,997.52
2017-04-16T12:17:15.066Z,997.51
2017-04-16T12:18:15.094Z,997.51
2017-04-16T12:19:15.126Z,997.51
2017-04-16T12:20:15.151Z,997.52
2017-04-16T12:21:15.174Z,997.53
2017-04-16T12:22:15.205Z,997.56
2017-04-16T12:23:15.229Z,997.63
2017-04-16T12:24:15.258Z,997.55
2017-04-16T12:25:15.285Z,997.57
2017-04-16T12:26:15.315Z,997.53
2017-04-16T12:27:15.343Z,997.55
2017-04-16T12:28:15.369Z,997.53
2017-04-16T12:29:15.398Z,997.55
2017-04-16T12:30:15.425Z,997.55
2017-04-16T12:31:15.455Z,997.53
2017-04-16T12:32:15.476Z,997.59
2017-04-16T12:33:15.508Z,997.53
2017-04-16T12:34:15.536Z,997.62
2017-04-16T12:35:15.562Z,997.64
2017-04-16T12:36:15.588Z,997.68
2017-04-16T12:37:15.623Z,997.71
2017-04-16T12:38:15.644Z,997.76
2017-04-16T12:39:15.673Z,997.84
2017-04-16T12:40:15.702Z,997.81
2017-04-16T12:41:15.731Z,997.78
2017-04-16T12:42:15.755Z,997.83
2017-04-16T12:43:15.784Z,997.76
2017-04-16T12:44:15.818Z,997.78
2017-04-16T12:45:15.838Z,997.74
2017-04-16T12:46:15.866Z,997.76
2017-04-16T12:47:15.891Z,997.78
2017-04-16T12:48:15.920Z,997.79
2017-04-16T12:49:15.949Z,997.83
2017-04-16T12:50:15.974Z,997.77
2017-04-16T12:51:16.008Z,997.81
2017-04-16T12:52:16.030Z,997.81
2017-04-16T12:53:16.061Z,997.75
2017-04-16T12:54:16.089Z,997.78
2017-04-16T12:55:16.117Z,997.79
2017-04-16T12:56:16.142Z,997.71
2017-04-16T12:57:16.166Z,997.71
2017-04-16T12:58:16.196Z,997.71
2017-04-16T12:59:16.226Z,997.72
2017-04-16T13:00:16.253Z,997.64
2017-04-16T13:01:16.283Z,997.68
2017-04-16T13:02:16.312Z,997.67
2017-04-16T13:03:16.336Z,997.68
2017-04-16T13:04:16.363Z,997.67
2017-04-16T13:05:16.658Z,997.64
2017-04-16T13:06:16.414Z,997.66
2017-04-16T13:07:16.447Z,997.63
2017-04-16T13:08:16.476Z,997.66
2017-04-16T13:09:16.500Z,997.61
2017-04-16T13:10:16.529Z,997.67
2017-04-16T13:11:16.558Z,997.59
2017-04-16T13:12:16.587Z,997.6
2017-04-16T13:13:16.608Z,997.6
2017-04-16T13:14:16.639Z,997.6
2017-04-16T13:15:16.669Z,997.64
2017-04-16T13:16:16.974Z,997.63
2017-04-16T13:17:16.721Z,997.61
2017-04-16T13:18:16.752Z,997.64
2017-04-16T13:19:16.774Z,997.64
2017-04-16T13:20:16.804Z,997.7
2017-04-16T13:21:16.836Z,997.78
2017-04-16T13:22:16.862Z,997.78
2017-04-16T13:23:16.888Z,997.75
2017-04-16T13:24:16.916Z,997.69
2017-04-16T13:25:16.946Z,997.68
2017-04-16T13:26:16.969Z,997.68
2017-04-16T13:27:16.998Z,997.72
2017-04-16T13:28:17.027Z,997.75
2017-04-16T13:29:17.052Z,997.72
2017-04-16T13:30:17.077Z,998.29
2017-04-16T13:31:17.102Z,998.34
2017-04-16T13:32:17.135Z,998.45
2017-04-16T13:33:17.160Z,998.46
2017-04-16T13:34:17.188Z,998.28
2017-04-16T13:35:17.217Z,998
2017-04-16T13:36:17.246Z,997.98
2017-04-16T13:37:17.273Z,998.02
2017-04-16T13:38:17.299Z,998
2017-04-16T13:39:17.327Z,998.11
2017-04-16T13:40:17.356Z,997.94
2017-04-16T13:41:17.381Z,997.94
2017-04-16T13:42:17.410Z,998.05
2017-04-16T13:43:17.434Z,998.09
2017-04-16T13:44:17.468Z,998.18
2017-04-16T13:45:17.492Z,998.1
2017-04-16T13:46:17.520Z,998.07
2017-04-16T13:47:17.549Z,998.07
2017-04-16T13:48:17.574Z,998.09
2017-04-16T13:49:17.605Z,998.03
2017-04-16T13:50:17.633Z,998.07
2017-04-16T13:51:17.661Z,998.11
2017-04-16T13:52:17.686Z,998.06
2017-04-16T13:53:17.710Z,998.01
2017-04-16T13:54:17.744Z,997.97
2017-04-16T13:55:17.773Z,997.99
2017-04-16T13:56:17.801Z,997.89
2017-04-16T13:57:17.826Z,997.94
2017-04-16T13:58:17.851Z,997.99
2017-04-16T13:59:17.884Z,998
2017-04-16T14:00:17.912Z,998.01
2017-04-16T14:01:17.941Z,997.96
2017-04-16T14:02:17.964Z,997.93
2017-04-16T14:03:17.991Z,997.94
2017-04-16T14:04:18.024Z,997.91
2017-04-16T14:05:18.053Z,997.9
2017-04-16T14:06:18.083Z,997.86
2017-04-16T14:07:18.106Z,997.89
2017-04-16T14:08:18.133Z,997.87
2017-04-16T14:09:18.164Z,997.89
2017-04-16T14:10:18.182Z,997.86
2017-04-16T14:11:18.221Z,997.9
2017-04-16T14:12:18.247Z,997.89
2017-04-16T14:13:18.270Z,997.87
2017-04-16T14:14:18.302Z,997.91
2017-04-16T14:15:18.331Z,997.91
2017-04-16T14:16:18.356Z,997.93
2017-04-16T14:17:18.385Z,997.9
2017-04-16T14:18:18.409Z,997.92
2017-04-16T14:19:18.443Z,997.82
2017-04-16T14:20:18.471Z,997.75
2017-04-16T14:21:18.496Z,997.77
2017-04-16T14:22:18.526Z,997.77
2017-04-16T14:23:18.549Z,997.71
2017-04-16T14:24:18.583Z,997.67
2017-04-16T14:25:18.609Z,997.64
2017-04-16T14:26:18.636Z,997.66
2017-04-16T14:27:18.666Z,997.64
2017-04-16T14:28:18.694Z,997.59
2017-04-16T14:29:18.722Z,997.61
2017-04-16T14:30:18.751Z,997.63
2017-04-16T14:31:18.777Z,997.63
2017-04-16T14:32:18.805Z,997.7
2017-04-16T14:33:18.834Z,997.61
2017-04-16T14:34:18.863Z,997.65
2017-04-16T14:35:18.892Z,997.65
2017-04-16T14:36:18.917Z,997.6
2017-04-16T14:37:18.946Z,997.6
2017-04-16T14:38:18.973Z,997.59
2017-04-16T14:39:19.003Z,997.6
2017-04-16T14:40:19.029Z,997.65
2017-04-16T14:41:19.051Z,997.65
2017-04-16T14:42:19.081Z,997.62
2017-04-16T14:43:19.115Z,997.61
2017-04-16T14:44:19.139Z,997.59
2017-04-16T14:45:19.168Z,997.56
2017-04-16T14:46:19.191Z,997.55
2017-04-16T14:47:19.225Z,997.56
2017-04-16T14:48:19.254Z,997.53
2017-04-16T14:49:19.278Z,997.51
2017-04-16T14:50:19.307Z,997.56
2017-04-16T14:51:19.335Z,997.54
2017-04-16T14:52:19.365Z,997.56
2017-04-16T14:53:19.389Z,997.52
2017-04-16T14:54:19.414Z,997.51
2017-04-16T14:55:19.442Z,997.51
2017-04-16T14:56:19.476Z,997.51
2017-04-16T14:57:19.500Z,997.5
2017-04-16T14:58:19.529Z,997.49
2017-04-16T14:59:19.558Z,997.47
2017-04-16T15:00:19.587Z,997.5
2017-04-16T15:01:19.615Z,997.55
2017-04-16T15:02:19.642Z,997.51
2017-04-16T15:03:19.669Z,997.52
2017-04-16T15:04:19.699Z,997.53
2017-04-16T15:05:19.722Z,997.51
2017-04-16T15:06:19.751Z,997.48
2017-04-16T15:07:19.780Z,997.54
2017-04-16T15:08:19.809Z,997.53
2017-04-16T15:09:19.835Z,997.53
2017-04-16T15:10:19.863Z,997.5
2017-04-16T15:11:19.892Z,997.5
2017-04-16T15:12:19.920Z,997.52
2017-04-16T15:13:19.945Z,997.54
2017-04-16T15:14:19.974Z,997.54
2017-04-16T15:15:20.002Z,997.53
2017-04-16T15:16:20.028Z,997.59
2017-04-16T15:17:20.056Z,997.52
2017-04-16T15:18:20.081Z,997.61
2017-04-16T15:19:20.113Z,997.6
2017-04-16T15:20:20.139Z,997.6
2017-04-16T15:21:20.167Z,997.62
2017-04-16T15:22:20.197Z,997.64
2017-04-16T15:23:20.222Z,997.64